Time;durP1;ratioP1;P1;durP2;ratioP2;P2;SDS_P1;SDS_P2;PMS_P1;PMS_P2;Temp;Humidity;BMP_temperature;BMP_pressure;BME280_temperature;BME280_humidity;BME280_pressure;Samples;Min_cycle;Max_cycle;Signal;HPM_P1;HPM_P2
2023/03/16 00:02:12;;;;;;;0.47;0.08;;;;;;;7.47;35.13;100801.44;5048252;28;20044;-74
2023/03/16 00:04:38;;;;;;;0.50;0.00;;;;;;;7.38;34.81;100799.56;5024960;28;20040;-73
2023/03/16 00:07:09;;;;;;;0.28;0.00;;;;;;;7.38;35.10;100809.91;5030070;28;20037;-74
2023/03/16 00:09:39;;;;;;;0.60;0.00;;;;;;;7.45;35.15;100805.94;5044391;28;20180;-73
2023/03/16 00:12:06;;;;;;;0.20;0.00;;;;;;;7.44;35.24;100808.63;5018505;28;20025;-72
2023/03/16 00:14:34;;;;;;;0.70;0.00;;;;;;;7.32;35.98;100821.56;5030284;28;20108;-72
2023/03/16 00:17:00;;;;;;;1.13;0.10;;;;;;;7.18;36.73;100828.72;5023310;28;20119;-74
2023/03/16 00:19:26;;;;;;;0.40;0.00;;;;;;;7.14;36.39;100819.50;5053305;28;20036;-73
2023/03/16 00:21:52;;;;;;;0.85;0.10;;;;;;;7.15;36.90;100823.75;5042209;28;20131;-74
2023/03/16 00:24:19;;;;;;;0.65;0.10;;;;;;;7.11;37.26;100828.34;5030554;28;20036;-73
2023/03/16 00:26:47;;;;;;;0.38;0.00;;;;;;;7.11;37.07;100832.69;5042287;28;20514;-75
2023/03/16 00:29:13;;;;;;;0.20;0.00;;;;;;;7.03;37.53;100833.28;5041690;28;20036;-73
2023/03/16 00:31:42;;;;;;;0.45;0.00;;;;;;;7.02;37.38;100828.22;5021589;28;20113;-75
2023/03/16 00:34:11;;;;;;;0.57;0.10;;;;;;;7.05;37.43;100834.00;5028765;28;20127;-75
2023/03/16 00:36:37;;;;;;;0.30;0.00;;;;;;;7.15;36.97;100840.13;5032611;28;20492;-75
2023/03/16 00:39:06;;;;;;;0.20;0.05;;;;;;;7.09;38.03;100850.16;5034366;28;20043;-75
2023/03/16 00:41:36;;;;;;;1.63;0.00;;;;;;;6.99;37.78;100840.47;5033209;28;20083;-75
2023/03/16 00:44:04;;;;;;;0.20;0.00;;;;;;;6.89;38.54;100844.66;5042762;28;20472;-74
2023/03/16 00:46:31;;;;;;;0.25;0.00;;;;;;;6.91;38.65;100839.38;5026842;28;20048;-75
2023/03/16 00:48:58;;;;;;;0.28;0.00;;;;;;;6.87;38.48;100846.53;5047876;28;20040;-75
2023/03/16 00:51:25;;;;;;;0.15;0.00;;;;;;;6.75;39.56;100834.47;5048295;28;20040;-75
2023/03/16 00:53:51;;;;;;;0.17;0.00;;;;;;;6.46;41.13;100841.75;5025065;28;20048;-74
2023/03/16 00:56:16;;;;;;;0.28;0.00;;;;;;;6.13;42.76;100852.72;5040887;28;20029;-74
2023/03/16 00:58:42;;;;;;;0.47;0.10;;;;;;;5.84;43.41;100848.66;5037435;28;20045;-74
2023/03/16 01:01:12;;;;;;;0.40;0.00;;;;;;;5.68;43.71;100849.69;5030578;28;20060;-75
2023/03/16 01:03:38;;;;;;;0.10;0.00;;;;;;;5.64;43.45;100845.69;5047139;28;20120;-74
2023/03/16 01:06:12;;;;;;;0.20;0.00;;;;;;;5.58;43.98;100840.94;5046443;28;20453;-74
2023/03/16 01:08:39;;;;;;;0.10;0.00;;;;;;;5.53;44.50;100839.59;5063281;28;20021;-74
2023/03/16 01:11:07;;;;;;;1.90;0.00;;;;;;;5.38;44.42;100841.44;5016136;28;20767;-74
2023/03/16 01:13:33;;;;;;;0.80;0.10;;;;;;;5.12;46.25;100845.75;5044557;28;20044;-74
2023/03/16 01:15:59;;;;;;;0.85;0.15;;;;;;;4.96;46.24;100845.91;5050822;28;20045;-74
2023/03/16 01:18:26;;;;;;;0.17;0.00;;;;;;;4.91;46.65;100847.97;5044837;28;20032;-74
2023/03/16 01:20:52;;;;;;;0.40;0.00;;;;;;;5.06;46.25;100845.31;5049405;28;20029;-74
2023/03/16 01:23:17;;;;;;;1.60;0.00;;;;;;;4.88;46.53;100848.16;5031730;28;20047;-74
2023/03/16 01:25:43;;;;;;;0.20;0.00;;;;;;;4.85;47.21;100850.94;5036728;28;20033;-74
2023/03/16 01:28:09;;;;;;;0.40;0.03;;;;;;;4.76;48.29;100858.44;5036592;28;20045;-74
2023/03/16 01:30:35;;;;;;;0.10;0.00;;;;;;;4.64;49.05;100860.06;5036295;28;20052;-74
2023/03/16 01:33:00;;;;;;;0.70;0.00;;;;;;;4.51;50.03;100861.75;5033482;28;20429;-74
2023/03/16 01:35:26;;;;;;;1.00;0.00;;;;;;;4.46;50.17;100866.38;5035545;28;20377;-74
2023/03/16 01:37:51;;;;;;;0.20;0.00;;;;;;;4.43;50.64;100866.56;5037058;28;20039;-74
2023/03/16 01:40:17;;;;;;;0.55;0.00;;;;;;;4.46;49.85;100866.38;5034418;28;20087;-74
2023/03/16 01:42:48;;;;;;;0.10;0.00;;;;;;;4.46;50.18;100863.78;5035528;28;20053;-74
2023/03/16 01:45:51;;;;;;;0.65;0.00;;;;;;;4.46;49.34;100872.38;5034880;28;20441;-74
2023/03/16 01:48:18;;;;;;;1.00;0.20;;;;;;;4.43;50.34;100866.56;5031772;28;20450;-74
2023/03/16 01:50:44;;;;;;;0.10;0.00;;;;;;;4.29;51.37;100877.72;5032976;28;20111;-74
2023/03/16 01:53:10;;;;;;;0.08;0.00;;;;;;;4.19;52.28;100880.06;5043210;28;20159;-74
2023/03/16 01:55:36;;;;;;;0.10;0.00;;;;;;;4.05;52.03;100887.81;5053631;28;20078;-74
2023/03/16 01:58:02;;;;;;;0.40;0.00;;;;;;;4.25;50.55;100891.75;5044709;28;20043;-74
2023/03/16 02:00:32;;;;;;;0.43;0.00;;;;;;;4.52;49.78;100891.81;5043151;28;20473;-74
2023/03/16 02:03:04;;;;;;;0.40;0.00;;;;;;;4.39;51.25;100899.47;5048018;28;20472;-74
2023/03/16 02:05:41;;;;;;;0.30;0.10;;;;;;;4.41;50.75;100900.19;5048356;28;20029;-74
2023/03/16 02:08:08;;;;;;;0.98;0.00;;;;;;;4.32;51.40;100899.00;5047591;28;20113;-74
2023/03/16 02:10:36;;;;;;;0.08;0.00;;;;;;;4.07;53.18;100900.59;5047897;28;20472;-74
2023/03/16 02:13:02;;;;;;;0.30;0.00;;;;;;;3.87;53.90;100912.94;5042536;28;20385;-74
2023/03/16 02:15:28;;;;;;;0.15;0.00;;;;;;;3.77;54.48;100918.75;5027126;28;20030;-73
2023/03/16 02:17:56;;;;;;;0.38;0.10;;;;;;;3.62;55.38;100929.00;5042678;28;20033;-73
2023/03/16 02:20:41;;;;;;;0.40;0.00;;;;;;;3.50;55.00;100922.00;5035212;28;20033;-73
2023/03/16 02:23:17;;;;;;;0.30;0.00;;;;;;;3.50;54.76;100927.13;5048921;28;20448;-73
2023/03/16 02:25:48;;;;;;;0.50;0.10;;;;;;;3.55;54.42;100927.72;5046300;28;20045;-73
2023/03/16 02:28:32;;;;;;;1.00;0.10;;;;;;;3.49;56.14;100933.22;5023497;28;20125;-73
2023/03/16 02:30:57;;;;;;;0.52;0.00;;;;;;;3.39;55.97;100934.66;5049977;28;20092;-73
2023/03/16 02:33:24;;;;;;;1.08;0.05;;;;;;;3.31;55.51;100936.81;5050662;28;20037;-73
2023/03/16 02:35:50;;;;;;;0.38;0.10;;;;;;;3.23;56.34;100939.84;5044735;28;20025;-74
2023/03/16 02:38:16;;;;;;;0.50;0.10;;;;;;;3.64;53.40;100934.91;5044446;28;20541;-73
2023/03/16 02:40:42;;;;;;;0.40;0.10;;;;;;;3.59;55.02;100931.78;5050750;28;20542;-73
2023/03/16 02:43:19;;;;;;;0.30;0.05;;;;;;;3.22;55.97;100935.63;5040732;28;20036;-73
2023/03/16 02:45:48;;;;;;;2.00;0.10;;;;;;;3.30;55.38;100941.19;5028938;28;20035;-74
2023/03/16 02:48:41;;;;;;;0.65;0.10;;;;;;;3.71;53.92;100942.28;5041934;28;20048;-74
2023/03/16 02:51:07;;;;;;;0.43;0.10;;;;;;;3.50;54.60;100952.91;5052844;28;20100;-74
2023/03/16 02:53:32;;;;;;;0.40;0.10;;;;;;;3.31;55.15;100958.25;5049596;28;20124;-74
2023/03/16 02:55:58;;;;;;;2.42;0.10;;;;;;;3.22;56.00;100952.81;5052565;28;20040;-73
2023/03/16 02:58:23;;;;;;;2.00;0.10;;;;;;;2.96;58.33;100960.22;5046946;28;20051;-73
2023/03/16 03:00:49;;;;;;;1.65;0.10;;;;;;;2.87;58.21;100965.03;5050958;28;20500;-73
2023/03/16 03:03:14;;;;;;;0.52;0.10;;;;;;;2.85;58.01;100970.25;5056344;28;20388;-73
2023/03/16 03:05:40;;;;;;;0.88;0.10;;;;;;;2.72;59.17;100965.88;5046597;28;20439;-73
2023/03/16 03:08:05;;;;;;;1.38;0.30;;;;;;;2.64;59.58;100976.56;5060281;28;20085;-73
2023/03/16 03:10:31;;;;;;;0.98;0.20;;;;;;;2.51;59.82;100976.38;5043667;28;20032;-73
2023/03/16 03:12:57;;;;;;;0.70;0.28;;;;;;;2.54;58.80;100965.09;5015430;28;20026;-73
2023/03/16 03:15:23;;;;;;;1.40;0.30;;;;;;;2.57;59.11;100970.94;5050432;28;20068;-73
2023/03/16 03:17:49;;;;;;;2.17;0.10;;;;;;;2.52;58.80;100970.34;5050582;28;20028;-73
2023/03/16 03:20:16;;;;;;;0.40;0.10;;;;;;;2.64;58.62;100976.56;5033052;28;20418;-73
2023/03/16 03:22:44;;;;;;;1.23;0.20;;;;;;;2.78;57.71;100984.41;5040573;28;20033;-73
2023/03/16 03:25:10;;;;;;;2.75;0.30;;;;;;;3.03;56.93;100977.91;5049715;28;20078;-73
2023/03/16 03:27:36;;;;;;;2.15;0.10;;;;;;;3.00;57.28;100982.31;5053441;28;20064;-73
2023/03/16 03:30:03;;;;;;;1.10;0.17;;;;;;;2.74;59.00;100989.78;5041965;28;20135;-73
2023/03/16 03:32:28;;;;;;;1.33;0.10;;;;;;;2.49;60.47;100993.66;5031122;28;20063;-73
2023/03/16 03:34:54;;;;;;;6.70;0.10;;;;;;;2.32;61.89;100997.13;5042703;28;20060;-73
2023/03/16 03:37:19;;;;;;;3.10;0.20;;;;;;;2.28;61.10;100997.34;5054495;28;20032;-73
2023/03/16 03:39:44;;;;;;;1.38;0.10;;;;;;;2.65;58.41;100998.81;5053760;28;20044;-73
2023/03/16 03:42:10;;;;;;;0.45;0.10;;;;;;;2.95;57.09;101004.88;5050193;28;20392;-73
2023/03/16 03:44:36;;;;;;;0.57;0.10;;;;;;;3.13;56.12;101004.81;5043388;28;20104;-73
2023/03/16 03:47:02;;;;;;;2.75;0.20;;;;;;;3.20;56.36;101001.00;5043162;28;20037;-73
2023/03/16 03:49:28;;;;;;;0.38;0.10;;;;;;;3.18;56.45;101003.66;5045400;28;20112;-73
2023/03/16 03:51:54;;;;;;;0.60;0.20;;;;;;;3.18;56.25;101003.66;5034389;28;20386;-73
2023/03/16 03:54:20;;;;;;;1.45;0.10;;;;;;;3.17;56.39;101006.31;5043185;28;20068;-73
2023/03/16 03:56:45;;;;;;;0.50;0.10;;;;;;;3.18;55.77;101013.97;5044003;28;20087;-73
2023/03/16 03:59:11;;;;;;;0.98;0.10;;;;;;;3.20;56.18;101019.03;5043257;28;20053;-73
2023/03/16 04:01:37;;;;;;;0.57;0.10;;;;;;;3.17;55.68;101026.91;5039207;28;20040;-73
2023/03/16 04:04:02;;;;;;;0.75;0.15;;;;;;;3.21;55.75;101036.97;5031143;28;20939;-73
2023/03/16 04:06:27;;;;;;;1.27;0.10;;;;;;;3.17;56.73;101034.63;5017600;28;20044;-73
2023/03/16 04:08:53;;;;;;;1.55;0.10;;;;;;;3.11;57.43;101037.53;5043956;28;20450;-73
2023/03/16 04:11:19;;;;;;;0.60;0.13;;;;;;;3.07;56.95;101043.78;5034016;28;20465;-73
2023/03/16 04:13:45;;;;;;;0.98;0.00;;;;;;;3.02;57.34;101051.72;5043969;28;20124;-73
2023/03/16 04:16:14;;;;;;;0.20;0.10;;;;;;;3.04;56.65;101047.34;5042229;28;20127;-73
2023/03/16 04:18:40;;;;;;;4.32;0.15;;;;;;;3.09;56.18;101055.66;5044937;28;20025;-73
2023/03/16 04:21:11;;;;;;;1.02;0.10;;;;;;;3.12;55.59;101052.06;5043185;28;20032;-73
2023/03/16 04:23:37;;;;;;;0.50;0.10;;;;;;;3.03;56.18;101050.00;5038470;28;20080;-73
2023/03/16 04:26:04;;;;;;;1.92;0.38;;;;;;;2.97;55.95;101051.97;5044735;28;20480;-73
2023/03/16 04:28:31;;;;;;;1.05;0.10;;;;;;;2.96;56.46;101054.63;5043074;28;20337;-73
2023/03/16 04:31:05;;;;;;;1.70;0.28;;;;;;;2.89;56.74;101056.69;5033084;28;20396;-74
2023/03/16 04:33:35;;;;;;;0.73;0.10;;;;;;;2.91;56.37;101056.63;5038426;28;20029;-74
2023/03/16 04:36:01;;;;;;;0.80;0.10;;;;;;;2.92;56.27;101046.25;5040357;28;20044;-73
2023/03/16 04:38:27;;;;;;;1.63;0.10;;;;;;;2.98;56.07;101056.22;5039329;28;20043;-74
2023/03/16 04:40:53;;;;;;;0.57;0.10;;;;;;;3.09;55.35;101055.66;5048978;28;20033;-73
2023/03/16 04:43:19;;;;;;;0.93;0.20;;;;;;;3.19;55.50;101054.25;5033452;28;20547;-74
2023/03/16 04:45:44;;;;;;;3.20;0.20;;;;;;;3.04;56.51;101061.94;5049105;28;20381;-74
2023/03/16 04:48:09;;;;;;;1.67;0.20;;;;;;;2.89;56.13;101050.72;5025882;28;20122;-74
2023/03/16 04:50:35;;;;;;;1.08;0.22;;;;;;;2.80;57.44;101059.78;5048503;28;20437;-74
2023/03/16 04:53:03;;;;;;;1.08;0.20;;;;;;;2.63;57.57;101049.53;5053266;28;20045;-74
2023/03/16 04:55:29;;;;;;;1.67;0.20;;;;;;;2.68;57.00;101052.69;5048335;28;20057;-73
2023/03/16 04:57:55;;;;;;;1.73;0.40;;;;;;;2.84;56.51;101053.53;5046299;28;20049;-74
2023/03/16 05:00:22;;;;;;;2.15;0.40;;;;;;;2.97;55.88;101046.00;5052993;28;20094;-74
2023/03/16 05:02:49;;;;;;;3.78;0.30;;;;;;;2.93;56.34;101049.66;5050124;28;20087;-74
2023/03/16 05:05:15;;;;;;;1.40;0.40;;;;;;;2.60;58.24;101054.84;5051005;28;20052;-74
2023/03/16 05:07:41;;;;;;;1.38;0.30;;;;;;;2.38;59.45;101051.69;5027822;28;20473;-74
2023/03/16 05:10:09;;;;;;;2.65;0.40;;;;;;;2.33;59.73;101059.66;5049876;28;20074;-74
2023/03/16 05:12:34;;;;;;;3.10;0.55;;;;;;;2.18;60.07;101071.53;5023329;28;20033;-74
2023/03/16 05:15:00;;;;;;;1.85;0.20;;;;;;;1.94;61.08;101071.00;5048721;28;20572;-74
2023/03/16 05:17:27;;;;;;;3.03;0.50;;;;;;;1.79;62.25;101074.31;5052075;28;20528;-67
2023/03/16 05:19:52;;;;;;;2.00;0.70;;;;;;;1.99;61.17;101075.91;5046386;28;20037;-74
2023/03/16 05:22:18;;;;;;;6.50;0.40;;;;;;;2.16;60.96;101081.06;5049090;28;20044;-74
2023/03/16 05:24:43;;;;;;;5.15;0.40;;;;;;;1.99;61.80;101079.31;5050526;28;20110;-74
2023/03/16 05:27:09;;;;;;;1.98;0.20;;;;;;;1.86;62.31;101085.16;5043936;28;20040;-74
2023/03/16 05:29:34;;;;;;;2.97;0.47;;;;;;;1.90;63.22;101090.03;5044000;28;20179;-74
2023/03/16 05:31:59;;;;;;;1.77;0.30;;;;;;;1.72;63.91;101084.97;5051180;28;20090;-74
2023/03/16 05:34:26;;;;;;;2.30;0.45;;;;;;;1.53;65.73;101096.09;5043387;28;20502;-74
2023/03/16 05:36:51;;;;;;;2.92;0.20;;;;;;;1.49;66.11;101104.84;5043378;28;20552;-74
2023/03/16 05:39:17;;;;;;;1.00;0.20;;;;;;;1.66;66.00;101107.47;5047824;28;20131;-73
2023/03/16 05:41:43;;;;;;;1.05;0.10;;;;;;;1.73;66.35;101105.44;5047418;28;20029;-74
2023/03/16 05:44:09;;;;;;;2.92;0.55;;;;;;;1.69;66.83;101115.94;5034415;28;20044;-74
2023/03/16 05:46:35;;;;;;;2.90;0.55;;;;;;;1.51;67.31;101113.31;5038556;28;20036;-74
2023/03/16 05:49:00;;;;;;;2.35;0.20;;;;;;;1.35;69.13;101104.66;5042355;28;20030;-73
2023/03/16 05:51:26;;;;;;;1.25;0.30;;;;;;;1.26;70.17;101112.78;5053626;28;20127;-73
2023/03/16 05:53:55;;;;;;;0.77;0.20;;;;;;;1.48;68.56;101116.03;5040301;28;20063;-73
2023/03/16 05:56:23;;;;;;;1.05;0.20;;;;;;;1.80;67.13;101116.25;5049095;28;20401;-73
2023/03/16 05:58:50;;;;;;;3.13;0.30;;;;;;;2.03;65.33;101121.13;5044133;28;20136;-74
2023/03/16 06:01:16;;;;;;;1.30;0.20;;;;;;;2.20;64.33;101116.00;5039850;28;20033;-74
2023/03/16 06:03:41;;;;;;;3.50;0.30;;;;;;;2.36;64.11;101120.41;5044460;28;20093;-74
2023/03/16 06:06:07;;;;;;;1.75;0.40;;;;;;;2.45;64.09;101123.31;5040524;28;20064;-73
2023/03/16 06:08:32;;;;;;;3.72;0.20;;;;;;;2.45;64.45;101125.06;5041458;28;20178;-73
2023/03/16 06:10:57;;;;;;;2.65;0.43;;;;;;;2.49;64.46;101134.28;5044429;28;20033;-73
2023/03/16 06:13:23;;;;;;;1.77;0.45;;;;;;;2.56;64.35;101133.91;5034411;28;20025;-73
2023/03/16 06:15:48;;;;;;;3.47;0.30;;;;;;;2.63;64.92;101140.41;5044709;28;20029;-74
2023/03/16 06:18:14;;;;;;;1.00;0.30;;;;;;;2.70;64.13;101143.50;5042899;28;20033;-73
2023/03/16 06:20:39;;;;;;;4.03;0.30;;;;;;;2.96;62.83;101155.84;5043729;28;20037;-74
2023/03/16 06:23:05;;;;;;;1.85;0.50;;;;;;;3.18;60.99;101159.91;5045677;28;20117;-73
2023/03/16 06:25:30;;;;;;;1.42;0.20;;;;;;;3.34;60.55;101165.88;5046466;28;20049;-73
2023/03/16 06:27:55;;;;;;;4.45;0.45;;;;;;;3.42;60.83;101170.63;5045346;28;20048;-73
2023/03/16 06:30:21;;;;;;;5.70;0.45;;;;;;;3.51;60.61;101185.59;5028625;28;20511;-73
2023/03/16 06:32:47;;;;;;;2.13;0.30;;;;;;;3.65;60.74;101177.97;5045168;28;20066;-73
2023/03/16 06:35:13;;;;;;;4.93;0.45;;;;;;;3.81;60.45;101177.94;5047742;28;20036;-73
2023/03/16 06:37:38;;;;;;;4.30;0.30;;;;;;;3.99;60.20;101180.34;5046320;28;20611;-74
2023/03/16 06:40:04;;;;;;;2.85;0.60;;;;;;;4.18;58.32;101172.44;5046024;28;20037;-74
2023/03/16 06:42:30;;;;;;;5.95;0.63;;;;;;;4.42;58.05;101179.69;5045949;28;20032;-73
2023/03/16 06:44:55;;;;;;;5.68;0.90;;;;;;;4.63;58.23;101178.47;5045025;28;20068;-73
2023/03/16 06:47:21;;;;;;;5.22;0.90;;;;;;;4.81;58.57;101179.94;5046409;28;20049;-73
2023/03/16 06:49:46;;;;;;;3.15;0.98;;;;;;;5.14;58.24;101191.78;5046559;28;20021;-73
2023/03/16 06:52:12;;;;;;;6.90;1.92;;;;;;;5.29;57.03;101194.25;5047299;28;20225;-73
2023/03/16 06:54:39;;;;;;;3.67;1.00;;;;;;;5.50;55.34;101193.88;5028626;28;20572;-73
2023/03/16 06:57:06;;;;;;;2.22;0.85;;;;;;;5.81;55.01;101195.38;5045365;28;20085;-72
2023/03/16 06:59:32;;;;;;;2.65;1.00;;;;;;;5.97;55.43;101201.28;5046895;28;20045;-73
2023/03/16 07:01:57;;;;;;;10.18;1.33;;;;;;;5.94;55.25;101201.47;5046116;28;20037;-73
2023/03/16 07:04:23;;;;;;;6.97;1.25;;;;;;;6.20;54.81;101200.63;5046248;28;20037;-73
2023/03/16 07:06:48;;;;;;;4.25;0.95;;;;;;;6.74;53.37;101202.31;5048196;28;20040;-73
2023/03/16 07:09:13;;;;;;;4.18;0.68;;;;;;;7.81;52.49;101206.97;5049954;28;20039;-73
2023/03/16 07:11:39;;;;;;;3.33;1.02;;;;;;;7.92;50.93;101198.44;5043238;28;20149;-72
2023/03/16 07:14:04;;;;;;;3.70;0.85;;;;;;;8.17;48.59;101206.09;5045961;28;20025;-73
2023/03/16 07:16:30;;;;;;;3.85;0.60;;;;;;;8.89;47.78;101203.41;5031691;28;20041;-73
2023/03/16 07:18:56;;;;;;;3.53;0.40;;;;;;;9.17;47.78;101202.13;5032679;28;20040;-73
2023/03/16 07:21:22;;;;;;;4.18;0.60;;;;;;;9.08;48.65;101195.00;5042340;28;20045;-73
2023/03/16 07:23:48;;;;;;;5.40;0.60;;;;;;;9.61;46.59;101202.09;5033250;28;20076;-73
2023/03/16 07:26:13;;;;;;;2.03;0.60;;;;;;;8.88;48.05;101196.56;5036228;28;20111;-73
2023/03/16 07:28:39;;;;;;;2.70;1.15;;;;;;;8.90;49.59;101203.28;5039447;28;20033;-73
2023/03/16 07:31:05;;;;;;;2.28;0.50;;;;;;;9.53;47.86;101207.06;5044402;28;20552;-73
2023/03/16 07:33:33;;;;;;;3.72;0.60;;;;;;;10.35;46.25;101198.84;5026063;28;20139;-73
2023/03/16 07:35:58;;;;;;;3.17;0.63;;;;;;;10.53;46.06;101202.53;5037948;28;20143;-73
2023/03/16 07:38:24;;;;;;;6.78;0.80;;;;;;;10.08;46.69;101202.69;5036510;28;20043;-73
2023/03/16 07:40:51;;;;;;;2.55;0.30;;;;;;;10.15;45.79;101208.22;5039855;28;20099;-73
2023/03/16 07:43:17;;;;;;;2.33;0.30;;;;;;;10.10;45.40;101203.41;5033404;28;20562;-73
2023/03/16 07:45:47;;;;;;;1.70;0.28;;;;;;;10.62;45.74;101207.00;5037917;28;20055;-72
2023/03/16 07:48:12;;;;;;;2.92;1.08;;;;;;;10.49;46.37;101209.78;5023862;28;20025;-73
2023/03/16 07:50:38;;;;;;;1.40;0.32;;;;;;;10.31;45.25;101203.47;5025188;28;20036;-73
2023/03/16 07:53:04;;;;;;;1.58;0.30;;;;;;;10.40;45.33;101214.94;5045874;28;20037;-72
2023/03/16 07:55:30;;;;;;;0.98;0.30;;;;;;;10.60;44.53;101214.94;5035510;28;20032;-72
2023/03/16 07:57:56;;;;;;;2.03;0.40;;;;;;;10.62;44.54;101207.00;5044314;28;20107;-73
2023/03/16 08:00:22;;;;;;;2.55;0.32;;;;;;;10.61;44.01;101215.75;5048948;28;20033;-72
2023/03/16 08:02:49;;;;;;;1.20;0.30;;;;;;;10.71;43.92;101215.84;5041669;28;20043;-72
2023/03/16 08:05:15;;;;;;;1.73;0.32;;;;;;;11.20;43.75;101215.16;5039670;28;20500;-72
2023/03/16 08:07:41;;;;;;;0.95;0.32;;;;;;;11.35;42.86;101213.81;5046494;28;20069;-72
2023/03/16 08:10:07;;;;;;;1.15;0.20;;;;;;;11.53;42.47;101227.06;5039585;28;20066;-72
2023/03/16 08:12:32;;;;;;;2.05;0.20;;;;;;;11.57;42.21;101216.25;5039718;28;20426;-74
2023/03/16 08:14:58;;;;;;;1.77;0.30;;;;;;;11.61;42.64;101227.25;5040095;28;20501;-72
2023/03/16 08:17:24;;;;;;;0.93;0.20;;;;;;;11.25;40.91;101221.63;5043886;28;20033;-72
2023/03/16 08:19:49;;;;;;;2.80;0.20;;;;;;;10.90;42.26;101224.59;5023110;28;20112;-72
2023/03/16 08:22:15;;;;;;;0.80;0.20;;;;;;;10.72;41.69;101227.91;5048281;28;20036;-72
2023/03/16 08:24:41;;;;;;;1.38;0.20;;;;;;;10.67;41.19;101230.91;5046160;28;20034;-72
2023/03/16 08:27:06;;;;;;;0.63;0.20;;;;;;;11.03;40.04;101227.00;5050855;28;20098;-72
2023/03/16 08:29:33;;;;;;;7.65;0.20;;;;;;;11.35;41.70;101226.03;5053784;28;20440;-72
2023/03/16 08:31:59;;;;;;;0.77;0.20;;;;;;;11.42;42.23;101229.78;5034356;28;20485;-71
2023/03/16 08:34:26;;;;;;;0.57;0.20;;;;;;;11.38;42.30;101236.22;5057822;28;20368;-73
2023/03/16 08:36:52;;;;;;;0.60;0.10;;;;;;;11.35;42.34;101233.88;5053720;28;20075;-72
2023/03/16 08:39:19;;;;;;;1.35;0.20;;;;;;;11.68;42.62;101244.03;5056132;28;20140;-73
2023/03/16 08:41:45;;;;;;;1.35;0.20;;;;;;;12.16;41.14;101244.16;5055129;28;20486;-73
2023/03/16 08:44:11;;;;;;;2.28;0.20;;;;;;;12.30;40.30;101245.53;5051341;28;20043;-73
2023/03/16 08:46:38;;;;;;;1.77;0.20;;;;;;;12.82;39.96;101239.03;5051580;28;20036;-73
2023/03/16 08:49:04;;;;;;;2.25;0.10;;;;;;;13.29;38.88;101233.84;5053917;28;20032;-73
2023/03/16 08:51:30;;;;;;;2.65;0.10;;;;;;;14.01;37.70;101240.94;5054389;28;20029;-73
2023/03/16 08:53:55;;;;;;;2.17;0.20;;;;;;;14.78;37.75;101229.81;5026079;28;20029;-72
2023/03/16 08:56:21;;;;;;;0.40;0.10;;;;;;;15.56;36.43;101235.88;5040300;28;20045;-73
2023/03/16 08:58:47;;;;;;;0.95;0.10;;;;;;;16.10;34.45;101232.88;5041622;28;20055;-72
2023/03/16 09:01:16;;;;;;;0.80;0.20;;;;;;;16.43;34.19;101239.84;5059787;28;20373;-73
2023/03/16 09:03:44;;;;;;;1.30;0.10;;;;;;;16.62;32.39;101233.41;5060461;28;20054;-73
2023/03/16 09:06:12;;;;;;;1.83;0.10;;;;;;;17.19;32.08;101236.81;5052209;28;20032;-73
2023/03/16 09:08:39;;;;;;;1.95;0.10;;;;;;;17.35;32.15;101233.31;5055094;28;20037;-73
2023/03/16 09:11:09;;;;;;;0.60;0.10;;;;;;;15.98;33.22;101248.16;5061342;28;20085;-73
2023/03/16 09:13:38;;;;;;;2.22;0.25;;;;;;;13.42;38.41;101241.38;5061830;28;20047;-73
2023/03/16 09:16:04;;;;;;;0.73;0.20;;;;;;;11.80;39.56;101252.63;5062649;28;20299;-73
2023/03/16 09:18:31;;;;;;;2.10;0.20;;;;;;;11.44;41.55;101251.34;5038950;28;20464;-73
2023/03/16 09:21:01;;;;;;;0.30;0.10;;;;;;;11.16;40.72;101253.69;5061925;28;20075;-72
2023/03/16 09:23:29;;;;;;;0.45;0.15;;;;;;;10.85;40.50;101250.22;5053693;28;20774;-72
2023/03/16 09:26:04;;;;;;;2.03;0.20;;;;;;;10.69;40.81;101249.00;5055386;28;20032;-72
2023/03/16 09:28:30;;;;;;;0.98;0.20;;;;;;;10.87;40.67;101253.50;5051221;28;20033;-72
2023/03/16 09:30:59;;;;;;;0.70;0.10;;;;;;;10.53;40.27;101254.63;5040390;28;20068;-73
2023/03/16 09:33:27;;;;;;;1.73;0.38;;;;;;;10.06;40.06;101259.25;5033243;28;20029;-73
2023/03/16 09:35:54;;;;;;;0.38;0.10;;;;;;;9.93;39.63;101261.19;5042472;28;20028;-72
2023/03/16 09:38:20;;;;;;;0.20;0.00;;;;;;;9.91;39.91;101258.72;5048940;28;20119;-73
2023/03/16 09:40:49;;;;;;;0.50;0.10;;;;;;;9.91;39.76;101257.91;5050913;28;20135;-73
2023/03/16 09:43:14;;;;;;;1.73;0.10;;;;;;;10.03;39.23;101262.09;5039854;28;20391;-72
2023/03/16 09:45:53;;;;;;;0.60;0.10;;;;;;;10.15;38.63;101250.72;5040838;28;20027;-72
2023/03/16 09:48:20;;;;;;;0.50;0.10;;;;;;;10.26;39.50;101261.16;5030139;28;20037;-72
2023/03/16 09:50:47;;;;;;;0.30;0.10;;;;;;;10.22;39.51;101251.09;5048483;28;20129;-72
2023/03/16 09:53:28;;;;;;;0.68;0.10;;;;;;;10.37;39.70;101244.66;5040160;28;20037;-72
2023/03/16 09:56:02;;;;;;;0.45;0.03;;;;;;;10.31;38.00;101252.97;5050820;28;20056;-74
2023/03/16 09:58:27;;;;;;;0.55;0.00;;;;;;;10.30;39.04;101257.34;5049289;28;20045;-73
2023/03/16 10:01:25;;;;;;;1.60;0.20;;;;;;;10.27;37.15;101261.97;5047615;28;20042;-73
2023/03/16 10:04:16;;;;;;;0.68;0.20;;;;;;;10.20;37.60;101261.63;5048346;28;20056;-73
2023/03/16 10:07:11;;;;;;;0.32;0.10;;;;;;;10.23;37.89;101258.78;5037633;28;20040;-72
2023/03/16 10:09:44;;;;;;;1.00;0.10;;;;;;;10.20;38.44;101264.25;5048021;28;20029;-72
2023/03/16 10:12:13;;;;;;;0.85;0.10;;;;;;;10.50;38.84;101271.34;5050347;28;20041;-72
2023/03/16 10:14:48;;;;;;;0.38;0.10;;;;;;;10.70;38.54;101263.69;5048514;28;20065;-72
2023/03/16 10:17:39;;;;;;;1.80;0.10;;;;;;;10.75;36.63;101259.75;5044026;28;20063;-72
2023/03/16 10:20:13;;;;;;;0.40;0.10;;;;;;;10.66;40.39;101270.94;5048173;28;20029;-72
2023/03/16 10:22:43;;;;;;;3.38;0.10;;;;;;;10.47;41.10;101260.34;5050060;28;20095;-72
2023/03/16 10:25:26;;;;;;;1.80;0.10;;;;;;;10.44;41.44;101258.81;5048614;28;20070;-72
2023/03/16 10:27:52;;;;;;;0.68;0.10;;;;;;;10.53;39.57;101254.63;5043863;28;20029;-73
2023/03/16 10:30:27;;;;;;;0.70;0.10;;;;;;;10.52;39.27;101258.19;5046885;28;20473;-72
2023/03/16 10:32:53;;;;;;;0.80;0.10;;;;;;;10.37;39.02;101256.84;5029566;28;20128;-72
2023/03/16 10:35:51;;;;;;;1.10;0.08;;;;;;;10.32;39.05;101257.22;5048086;28;20063;-72
2023/03/16 10:38:38;;;;;;;0.60;0.10;;;;;;;10.21;38.27;101250.28;5031816;28;20531;-72
2023/03/16 10:41:19;;;;;;;0.40;0.10;;;;;;;10.37;36.53;101247.25;5044238;28;20045;-72
2023/03/16 10:43:48;;;;;;;1.42;0.10;;;;;;;10.52;37.80;101240.78;5039007;28;20044;-72
2023/03/16 10:46:13;;;;;;;1.15;0.20;;;;;;;10.66;37.09;101239.66;5045673;28;20044;-72
2023/03/16 10:48:39;;;;;;;0.40;0.10;;;;;;;10.58;39.23;101250.72;5041174;28;20502;-72
2023/03/16 10:51:12;;;;;;;1.00;0.10;;;;;;;10.76;41.04;101252.78;5044373;28;20733;-72
2023/03/16 10:53:41;;;;;;;0.38;0.10;;;;;;;10.77;39.56;101246.59;5044307;28;20036;-72
2023/03/16 10:56:21;;;;;;;0.50;0.10;;;;;;;10.82;39.90;101241.84;5038009;28;20036;-73
2023/03/16 10:58:47;;;;;;;0.43;0.10;;;;;;;10.86;39.57;101240.63;5047661;28;20037;-71
2023/03/16 11:01:23;;;;;;;4.15;0.22;;;;;;;10.91;40.28;101244.47;5038495;28;20040;-73
2023/03/16 11:03:52;;;;;;;1.38;0.10;;;;;;;10.82;41.33;101249.66;5039594;28;20029;-72
2023/03/16 11:06:29;;;;;;;0.50;0.17;;;;;;;10.54;41.58;101238.88;5036972;28;20029;-72
2023/03/16 11:09:04;;;;;;;0.50;0.10;;;;;;;10.59;40.49;101243.72;5021625;28;20406;-72
2023/03/16 11:11:31;;;;;;;1.55;0.10;;;;;;;10.75;42.11;101236.31;5045747;28;20099;-72
2023/03/16 11:13:59;;;;;;;0.85;0.10;;;;;;;11.00;42.26;101244.69;5043332;28;20040;-72
2023/03/16 11:16:38;;;;;;;0.60;0.10;;;;;;;10.94;38.35;101244.22;5044780;28;20469;-72
2023/03/16 11:19:17;;;;;;;0.20;0.10;;;;;;;10.80;40.32;101241.97;5038322;28;24637;-72
2023/03/16 11:22:07;;;;;;;0.60;0.10;;;;;;;10.73;41.84;101234.78;5041967;28;20037;-72
2023/03/16 11:24:44;;;;;;;1.80;0.10;;;;;;;10.76;42.15;101235.34;5036839;28;20029;-72
2023/03/16 11:27:14;;;;;;;0.30;0.10;;;;;;;10.92;42.05;101230.50;5035233;28;20031;-72
2023/03/16 11:29:58;;;;;;;0.73;0.17;;;;;;;11.24;42.06;101234.81;5025167;28;20481;-72
2023/03/16 11:32:32;;;;;;;1.75;0.20;;;;;;;11.36;41.85;101233.72;5040406;28;20041;-73
2023/03/16 11:34:59;;;;;;;2.72;0.10;;;;;;;11.18;42.36;101238.75;5033427;28;20041;-72
2023/03/16 11:37:39;;;;;;;0.75;0.10;;;;;;;11.24;40.78;101230.41;5039303;28;20025;-72